Private Wetterstation Sandau
Wetterdaten: Freitag, 25.01.2013
Datum Zeit Temp. A. Feuchte A. Luftdruck Regen Wind Richtung Richtung Taupunkt Windchill
25.01.2013 00:01 -7,9 C 88 % 1021,3 hPa 0,0 l/m 1,4 km/h (1 Bft) NO 45 -9,5 C -7,9 C
25.01.2013 00:06 -7,9 C 88 % 1021,4 hPa 0,0 l/m 0,0 km/h (0 Bft) NO 45 -9,5 C -7,9 C
25.01.2013 00:11 -7,9 C 88 % 1021,6 hPa 0,0 l/m 0,0 km/h (0 Bft) NO 45 -9,5 C -7,9 C
25.01.2013 00:16 -8,1 C 88 % 1021,5 hPa 0,0 l/m 1,8 km/h (1 Bft) NO 45 -9,7 C -8,1 C
25.01.2013 00:21 -8,1 C 88 % 1021,7 hPa 0,0 l/m 2,5 km/h (1 Bft) NO 45 -9,7 C -8,1 C
25.01.2013 00:26 -8,1 C 88 % 1021,6 hPa 0,0 l/m 0,0 km/h (0 Bft) O-NO 67 -9,7 C -8,1 C
25.01.2013 00:31 -8,1 C 88 % 1021,7 hPa 0,0 l/m 1,8 km/h (1 Bft) O-NO 67 -9,7 C -8,1 C
25.01.2013 00:36 -8,1 C 88 % 1021,6 hPa 0,0 l/m 1,8 km/h (1 Bft) O-NO 67 -9,7 C -8,1 C
25.01.2013 00:41 -8,1 C 88 % 1021,7 hPa 0,0 l/m 1,1 km/h (1 Bft) O-NO 67 -9,7 C -8,1 C
25.01.2013 00:46 -8,1 C 88 % 1021,7 hPa 0,0 l/m 0,0 km/h (0 Bft) O-NO 67 -9,7 C -8,1 C
25.01.2013 00:51 -8,1 C 88 % 1021,8 hPa 0,0 l/m 0,0 km/h (0 Bft) O-NO 67 -9,7 C -8,1 C
25.01.2013 00:56 -8,2 C 88 % 1021,9 hPa 0,0 l/m 1,1 km/h (1 Bft) O-NO 67 -9,8 C -8,2 C
25.01.2013 01:01 -8,2 C 88 % 1021,6 hPa 0,0 l/m 0,0 km/h (0 Bft) O-NO 67 -9,8 C -8,2 C
25.01.2013 01:06 -8,4 C 88 % 1021,8 hPa 0,0 l/m 0,0 km/h (0 Bft) O-NO 67 -10,0 C -8,4 C
25.01.2013 01:11 -8,4 C 88 % 1021,8 hPa 0,0 l/m 0,0 km/h (0 Bft) O-NO 67 -10,0 C -8,4 C
25.01.2013 01:16 -8,5 C 87 % 1021,7 hPa 0,0 l/m 0,0 km/h (0 Bft) O-NO 67 -10,3 C -8,5 C
25.01.2013 01:21 -8,6 C 87 % 1021,8 hPa 0,0 l/m 0,0 km/h (0 Bft) O-NO 67 -10,4 C -8,6 C
25.01.2013 01:26 -8,7 C 87 % 1021,6 hPa 0,0 l/m 0,0 km/h (0 Bft) O-NO 67 -10,5 C -8,7 C
25.01.2013 01:31 -8,8 C 87 % 1021,6 hPa 0,0 l/m 0,0 km/h (0 Bft) O-NO 67 -10,6 C -8,8 C
25.01.2013 01:36 -8,9 C 87 % 1021,7 hPa 0,0 l/m 0,0 km/h (0 Bft) O-NO 67 -10,7 C -8,9 C
25.01.2013 01:41 -9,0 C 87 % 1021,6 hPa 0,0 l/m 0,0 km/h (0 Bft) O-NO 67 -10,8 C -9,0 C
25.01.2013 01:46 -9,1 C 87 % 1021,7 hPa 0,0 l/m 1,4 km/h (1 Bft) NO 45 -10,9 C -9,1 C
25.01.2013 01:51 -9,1 C 87 % 1021,9 hPa 0,0 l/m 0,0 km/h (0 Bft) O-NO 67 -10,9 C -9,1 C
25.01.2013 01:56 -9,1 C 87 % 1021,7 hPa 0,0 l/m 0,0 km/h (0 Bft) NO 45 -10,9 C -9,1 C
25.01.2013 02:01 -9,1 C 87 % 1021,8 hPa 0,0 l/m 0,0 km/h (0 Bft) NO 45 -10,9 C -9,1 C
25.01.2013 02:06 -9,2 C 87 % 1021,9 hPa 0,0 l/m 0,0 km/h (0 Bft) NO 45 -11,0 C -9,2 C
25.01.2013 02:11 -9,4 C 87 % 1021,8 hPa 0,0 l/m 0,0 km/h (0 Bft) NO 45 -11,2 C -9,4 C
25.01.2013 02:16 -9,5 C 87 % 1021,9 hPa 0,0 l/m 0,0 km/h (0 Bft) NO 45 -11,2 C -9,5 C
25.01.2013 02:21 -9,6 C 87 % 1021,9 hPa 0,0 l/m 0,0 km/h (0 Bft) NO 45 -11,3 C -9,6 C
25.01.2013 02:26 -9,7 C 87 % 1021,9 hPa 0,0 l/m 0,0 km/h (0 Bft) NO 45 -11,4 C -9,7 C
25.01.2013 02:31 -9,7 C 87 % 1022,0 hPa 0,0 l/m 0,0 km/h (0 Bft) NO 45 -11,4 C -9,7 C
25.01.2013 02:36 -9,8 C 87 % 1022,1 hPa 0,0 l/m 0,0 km/h (0 Bft) NO 45 -11,5 C -9,8 C
25.01.2013 02:41 -9,8 C 87 % 1022,1 hPa 0,0 l/m 0,0 km/h (0 Bft) NO 45 -11,5 C -9,8 C
25.01.2013 02:46 -9,8 C 87 % 1021,9 hPa 0,0 l/m 0,0 km/h (0 Bft) NO 45 -11,5 C -9,8 C
25.01.2013 02:51 -9,8 C 87 % 1022,1 hPa 0,0 l/m 0,0 km/h (0 Bft) NO 45 -11,5 C -9,8 C
25.01.2013 02:56 -9,9 C 87 % 1022,0 hPa 0,0 l/m 0,0 km/h (0 Bft) NO 45 -11,6 C -9,9 C
25.01.2013 03:01 -9,9 C 87 % 1022,0 hPa 0,0 l/m 0,0 km/h (0 Bft) NO 45 -11,6 C -9,9 C
25.01.2013 03:06 -9,9 C 87 % 1022,1 hPa 0,0 l/m 0,0 km/h (0 Bft) NO 45 -11,6 C -9,9 C
25.01.2013 03:11 -9,9 C 87 % 1022,2 hPa 0,0 l/m 0,0 km/h (0 Bft) NO 45 -11,6 C -9,9 C
25.01.2013 03:16 -10,0 C 87 % 1022,3 hPa 0,0 l/m 0,0 km/h (0 Bft) NO 45 -11,7 C -10,0 C
25.01.2013 03:21 -10,1 C 87 % 1022,0 hPa 0,0 l/m 0,0 km/h (0 Bft) NO 45 -11,8 C -10,1 C
25.01.2013 03:26 -10,1 C 87 % 1022,1 hPa 0,0 l/m 0,0 km/h (0 Bft) NO 45 -11,8 C -10,1 C
25.01.2013 03:31 -10,1 C 87 % 1022,1 hPa 0,0 l/m 0,0 km/h (0 Bft) NO 45 -11,8 C -10,1 C
25.01.2013 03:36 -10,2 C 86 % 1022,2 hPa 0,0 l/m 0,0 km/h (0 Bft) NO 45 -12,1 C -10,2 C
25.01.2013 03:41 -10,2 C 86 % 1022,3 hPa 0,0 l/m 0,0 km/h (0 Bft) NO 45 -12,1 C -10,2 C
25.01.2013 03:46 -10,2 C 86 % 1022,5 hPa 0,0 l/m 0,0 km/h (0 Bft) NO 45 -12,1 C -10,2 C
25.01.2013 03:51 -10,4 C 86 % 1022,4 hPa 0,0 l/m 0,0 km/h (0 Bft) NO 45 -12,3 C -10,4 C
25.01.2013 03:56 -10,4 C 86 % 1022,3 hPa 0,0 l/m 0,0 km/h (0 Bft) NO 45 -12,3 C -10,4 C
25.01.2013 04:01 -10,4 C 86 % 1022,4 hPa 0,0 l/m 0,0 km/h (0 Bft) NO 45 -12,3 C -10,4 C
25.01.2013 04:06 -10,5 C 86 % 1022,6 hPa 0,0 l/m 0,0 km/h (0 Bft) NO 45 -12,4 C -10,5 C
25.01.2013 04:11 -10,5 C 86 % 1022,6 hPa 0,0 l/m 0,0 km/h (0 Bft) NO 45 -12,4 C -10,5 C
25.01.2013 04:16 -10,5 C 86 % 1022,5 hPa 0,0 l/m 0,0 km/h (0 Bft) NO 45 -12,4 C -10,5 C
25.01.2013 04:21 -10,6 C 86 % 1022,7 hPa 0,0 l/m 0,0 km/h (0 Bft) NO 45 -12,5 C -10,6 C
25.01.2013 04:26 -10,6 C 86 % 1022,8 hPa 0,0 l/m 0,0 km/h (0 Bft) NO 45 -12,5 C -10,6 C
25.01.2013 04:31 -10,6 C 86 % 1023,1 hPa 0,0 l/m 0,0 km/h (0 Bft) NO 45 -12,5 C -10,6 C
25.01.2013 04:36 -10,5 C 86 % 1022,7 hPa 0,0 l/m 1,4 km/h (1 Bft) NO 45 -12,4 C -10,5 C
25.01.2013 04:41 -10,4 C 86 % 1022,9 hPa 0,0 l/m 0,0 km/h (0 Bft) NO 45 -12,3 C -10,4 C
25.01.2013 04:46 -10,2 C 86 % 1022,8 hPa 0,0 l/m 0,0 km/h (0 Bft) NO 45 -12,1 C -10,2 C
25.01.2013 04:51 -10,1 C 87 % 1022,9 hPa 0,0 l/m 0,0 km/h (0 Bft) O-NO 67 -11,8 C -10,1 C
25.01.2013 04:56 -9,9 C 87 % 1022,9 hPa 0,0 l/m 0,0 km/h (0 Bft) O-NO 67 -11,6 C -9,9 C
25.01.2013 05:01 -9,8 C 87 % 1022,9 hPa 0,0 l/m 0,0 km/h (0 Bft) O-NO 67 -11,5 C -9,8 C
25.01.2013 05:06 -9,7 C 87 % 1022,9 hPa 0,0 l/m 0,0 km/h (0 Bft) O-NO 67 -11,4 C -9,7 C
25.01.2013 05:11 -9,6 C 87 % 1023,0 hPa 0,0 l/m 0,0 km/h (0 Bft) O-NO 67 -11,3 C -9,6 C
25.01.2013 05:16 -9,6 C 87 % 1023,3 hPa 0,0 l/m 0,0 km/h (0 Bft) O-NO 67 -11,3 C -9,6 C
25.01.2013 05:21 -9,5 C 87 % 1023,0 hPa 0,0 l/m 0,0 km/h (0 Bft) O-NO 67 -11,2 C -9,5 C
25.01.2013 05:26 -9,4 C 87 % 1023,1 hPa 0,0 l/m 0,0 km/h (0 Bft) NO 45 -11,2 C -9,4 C
25.01.2013 05:31 -9,2 C 87 % 1023,0 hPa 0,0 l/m 0,0 km/h (0 Bft) NO 45 -11,0 C -9,2 C
25.01.2013 05:36 -9,1 C 87 % 1023,1 hPa 0,0 l/m 0,0 km/h (0 Bft) NO 45 -10,9 C -9,1 C
25.01.2013 05:41 -9,0 C 87 % 1023,2 hPa 0,0 l/m 0,0 km/h (0 Bft) NO 45 -10,8 C -9,0 C
25.01.2013 05:46 -8,9 C 87 % 1023,0 hPa 0,0 l/m 0,0 km/h (0 Bft) NO 45 -10,7 C -8,9 C
25.01.2013 05:51 -8,8 C 87 % 1023,1 hPa 0,0 l/m 0,0 km/h (0 Bft) NO 45 -10,6 C -8,8 C
25.01.2013 05:56 -8,8 C 87 % 1023,1 hPa 0,0 l/m 0,0 km/h (0 Bft) NO 45 -10,6 C -8,8 C
25.01.2013 06:01 -8,8 C 87 % 1023,1 hPa 0,0 l/m 1,1 km/h (1 Bft) NO 45 -10,6 C -8,8 C
25.01.2013 06:06 -8,7 C 87 % 1023,0 hPa 0,0 l/m 0,0 km/h (0 Bft) W-NW 292 -10,5 C -8,7 C
25.01.2013 06:11 -8,7 C 87 % 1023,0 hPa 0,0 l/m 1,1 km/h (1 Bft) NW 315 -10,5 C -8,7 C
25.01.2013 06:16 -8,7 C 87 % 1023,0 hPa 0,0 l/m 0,0 km/h (0 Bft) NW 315 -10,5 C -8,7 C
25.01.2013 06:21 -8,7 C 87 % 1023,0 hPa 0,0 l/m 0,0 km/h (0 Bft) NW 315 -10,5 C -8,7 C
25.01.2013 06:26 -8,6 C 87 % 1023,2 hPa 0,0 l/m 0,0 km/h (0 Bft) N 360 -10,4 C -8,6 C
25.01.2013 06:31 -8,5 C 87 % 1023,1 hPa 0,0 l/m 0,0 km/h (0 Bft) N-NW 337 -10,3 C -8,5 C
25.01.2013 06:36 -8,4 C 88 % 1023,3 hPa 0,0 l/m 1,1 km/h (1 Bft) N-NW 337 -10,0 C -8,4 C
25.01.2013 06:41 -8,4 C 88 % 1023,2 hPa 0,0 l/m 0,0 km/h (0 Bft) N-NW 337 -10,0 C -8,4 C
25.01.2013 06:46 -8,2 C 88 % 1023,2 hPa 0,0 l/m 2,5 km/h (1 Bft) NW 315 -9,8 C -8,2 C
25.01.2013 06:51 -8,2 C 88 % 1023,4 hPa 0,0 l/m 0,0 km/h (0 Bft) NW 315 -9,8 C -8,2 C
25.01.2013 06:56 -8,2 C 88 % 1023,3 hPa 0,0 l/m 0,0 km/h (0 Bft) S-SW 202 -9,8 C -8,2 C
25.01.2013 07:01 -8,1 C 88 % 1023,2 hPa 0,0 l/m 0,0 km/h (0 Bft) S-SW 202 -9,7 C -8,1 C
25.01.2013 07:06 -8,1 C 87 % 1023,3 hPa 0,0 l/m 1,4 km/h (1 Bft) SW 225 -9,9 C -8,1 C
25.01.2013 07:11 -8,2 C 87 % 1023,4 hPa 0,0 l/m 0,0 km/h (0 Bft) S-SW 202 -10,0 C -8,2 C
25.01.2013 07:16 -8,2 C 87 % 1023,5 hPa 0,0 l/m 1,8 km/h (1 Bft) S-SW 202 -10,0 C -8,2 C
25.01.2013 07:21 -8,2 C 87 % 1023,4 hPa 0,0 l/m 1,8 km/h (1 Bft) S-SW 202 -10,0 C -8,2 C
25.01.2013 07:26 -8,2 C 87 % 1023,5 hPa 0,0 l/m 2,5 km/h (1 Bft) S 180 -10,0 C -8,2 C
25.01.2013 07:31 -8,3 C 87 % 1023,4 hPa 0,0 l/m 0,0 km/h (0 Bft) S-SW 202 -10,1 C -8,3 C
25.01.2013 07:36 -8,4 C 87 % 1023,7 hPa 0,0 l/m 0,0 km/h (0 Bft) SW 225 -10,2 C -8,4 C
25.01.2013 07:41 -8,4 C 87 % 1023,6 hPa 0,0 l/m 2,5 km/h (1 Bft) SW 225 -10,2 C -8,4 C
25.01.2013 07:46 -8,4 C 87 % 1023,8 hPa 0,0 l/m 0,0 km/h (0 Bft) S-SW 202 -10,2 C -8,4 C
25.01.2013 07:51 -8,4 C 87 % 1023,6 hPa 0,0 l/m 0,0 km/h (0 Bft) W-SW 247 -10,2 C -8,4 C
25.01.2013 07:56 -8,2 C 87 % 1023,6 hPa 0,0 l/m 0,0 km/h (0 Bft) W-SW 247 -10,0 C -8,2 C
25.01.2013 08:01 -8,2 C 87 % 1023,6 hPa 0,0 l/m 1,1 km/h (1 Bft) W-SW 247 -10,0 C -8,2 C
25.01.2013 08:06 -8,2 C 87 % 1023,6 hPa 0,0 l/m 0,0 km/h (0 Bft) W-NW 292 -10,0 C -8,2 C
25.01.2013 08:11 -8,2 C 87 % 1023,9 hPa 0,0 l/m 0,0 km/h (0 Bft) W-NW 292 -10,0 C -8,2 C
25.01.2013 08:16 -8,2 C 87 % 1023,9 hPa 0,0 l/m 0,0 km/h (0 Bft) W-NW 292 -10,0 C -8,2 C
25.01.2013 08:21 -8,2 C 87 % 1023,8 hPa 0,0 l/m 0,0 km/h (0 Bft) W-NW 292 -10,0 C -8,2 C
25.01.2013 08:26 -8,2 C 87 % 1023,8 hPa 0,0 l/m 0,0 km/h (0 Bft) W-NW 292 -10,0 C -8,2 C
25.01.2013 08:31 -8,1 C 87 % 1023,7 hPa 0,0 l/m 0,0 km/h (0 Bft) W-NW 292 -9,9 C -8,1 C
25.01.2013 08:36 -8,1 C 87 % 1023,9 hPa 0,0 l/m 0,0 km/h (0 Bft) W-NW 292 -9,9 C -8,1 C
25.01.2013 08:41 -8,1 C 87 % 1023,9 hPa 0,0 l/m 0,0 km/h (0 Bft) W-NW 292 -9,9 C -8,1 C
25.01.2013 08:46 -8,1 C 87 % 1023,8 hPa 0,0 l/m 2,5 km/h (1 Bft) W-SW 247 -9,9 C -8,1 C
25.01.2013 08:51 -7,9 C 87 % 1024,0 hPa 0,0 l/m 3,2 km/h (1 Bft) W 270 -9,7 C -7,9 C
25.01.2013 08:56 -7,8 C 87 % 1024,0 hPa 0,0 l/m 1,4 km/h (1 Bft) W 270 -9,6 C -7,8 C
25.01.2013 09:01 -7,7 C 87 % 1024,0 hPa 0,0 l/m 1,4 km/h (1 Bft) W 270 -9,5 C -7,7 C
25.01.2013 09:06 -7,6 C 87 % 1024,0 hPa 0,0 l/m 0,0 km/h (0 Bft) W 270 -9,4 C -7,6 C
25.01.2013 09:11 -7,6 C 87 % 1024,0 hPa 0,0 l/m 0,0 km/h (0 Bft) W-SW 247 -9,4 C -7,6 C
25.01.2013 09:16 -7,4 C 87 % 1023,6 hPa 0,0 l/m 0,0 km/h (0 Bft) W-SW 247 -9,2 C -7,4 C
25.01.2013 09:21 -7,2 C 87 % 1023,8 hPa 0,0 l/m 0,0 km/h (0 Bft) SW 225 -9,0 C -7,2 C
25.01.2013 09:26 -7,1 C 87 % 1023,9 hPa 0,0 l/m 2,9 km/h (1 Bft) W-SW 247 -8,9 C -7,1 C
25.01.2013 09:31 -6,9 C 87 % 1023,7 hPa 0,0 l/m 0,0 km/h (0 Bft) W-SW 247 -8,7 C -6,9 C
25.01.2013 09:36 -6,9 C 87 % 1023,9 hPa 0,0 l/m 0,0 km/h (0 Bft) W-SW 247 -8,7 C -6,9 C
25.01.2013 09:41 -6,8 C 87 % 1023,9 hPa 0,0 l/m 0,0 km/h (0 Bft) W-NW 292 -8,6 C -6,8 C
25.01.2013 09:46 -6,7 C 86 % 1023,8 hPa 0,0 l/m 1,1 km/h (1 Bft) NW 315 -8,6 C -6,7 C
25.01.2013 09:51 -6,7 C 86 % 1023,9 hPa 0,0 l/m 1,1 km/h (1 Bft) W 270 -8,6 C -6,7 C
25.01.2013 09:56 -6,5 C 86 % 1024,0 hPa 0,0 l/m 0,0 km/h (0 Bft) W 270 -8,4 C -6,5 C
25.01.2013 10:01 -6,4 C 86 % 1024,2 hPa 0,0 l/m 0,0 km/h (0 Bft) N-NW 337 -8,3 C -6,4 C
25.01.2013 10:06 -6,4 C 86 % 1024,0 hPa 0,0 l/m 0,0 km/h (0 Bft) W 270 -8,3 C -6,4 C
25.01.2013 10:11 -6,4 C 86 % 1024,0 hPa 0,0 l/m 0,0 km/h (0 Bft) W 270 -8,3 C -6,4 C
25.01.2013 10:16 -6,2 C 86 % 1024,0 hPa 0,0 l/m 0,0 km/h (0 Bft) W-SW 247 -8,1 C -6,2 C
25.01.2013 10:21 -6,1 C 86 % 1023,9 hPa 0,0 l/m 2,5 km/h (1 Bft) W-SW 247 -8,0 C -6,1 C
25.01.2013 10:26 -5,9 C 85 % 1024,0 hPa 0,0 l/m 0,0 km/h (0 Bft) W-SW 247 -8,0 C -5,9 C
25.01.2013 10:31 -5,7 C 85 % 1024,0 hPa 0,0 l/m 1,1 km/h (1 Bft) W-SW 247 -7,8 C -5,7 C
25.01.2013 10:36 -5,6 C 85 % 1024,0 hPa 0,0 l/m 0,0 km/h (0 Bft) W-SW 247 -7,7 C -5,6 C
25.01.2013 10:41 -5,5 C 85 % 1023,9 hPa 0,0 l/m 0,0 km/h (0 Bft) W 270 -7,6 C -5,5 C
25.01.2013 10:46 -5,3 C 85 % 1023,9 hPa 0,0 l/m 0,0 km/h (0 Bft) W 270 -7,4 C -5,3 C
25.01.2013 10:51 -5,2 C 84 % 1023,9 hPa 0,0 l/m 0,0 km/h (0 Bft) W-SW 247 -7,5 C -5,2 C
25.01.2013 10:56 -5,1 C 84 % 1023,9 hPa 0,0 l/m 0,0 km/h (0 Bft) W-NW 292 -7,4 C -5,1 C
25.01.2013 11:01 -5,0 C 84 % 1024,0 hPa 0,0 l/m 4,0 km/h (1 Bft) N-NW 337 -7,3 C -5,0 C
25.01.2013 11:06 -4,9 C 84 % 1023,9 hPa 0,0 l/m 0,0 km/h (0 Bft) N 360 -7,2 C -4,9 C
25.01.2013 11:11 -4,7 C 84 % 1024,2 hPa 0,0 l/m 2,5 km/h (1 Bft) NO 45 -7,0 C -4,7 C
25.01.2013 11:16 -4,7 C 83 % 1024,3 hPa 0,0 l/m 3,6 km/h (1 Bft) N-NW 337 -7,1 C -4,7 C
25.01.2013 11:21 -4,7 C 83 % 1024,3 hPa 0,0 l/m 4,0 km/h (1 Bft) NW 315 -7,1 C -4,7 C
25.01.2013 11:26 -4,8 C 83 % 1024,2 hPa 0,0 l/m 2,5 km/h (1 Bft) NW 315 -7,2 C -4,8 C
25.01.2013 11:31 -4,7 C 83 % 1024,2 hPa 0,0 l/m 0,0 km/h (0 Bft) N 360 -7,1 C -4,7 C
25.01.2013 11:36 -4,5 C 83 % 1024,0 hPa 0,0 l/m 0,0 km/h (0 Bft) NW 315 -6,9 C -4,5 C
25.01.2013 11:41 -4,1 C 83 % 1024,1 hPa 0,0 l/m 0,0 km/h (0 Bft) NW 315 -6,5 C -4,1 C
25.01.2013 11:46 -4,1 C 83 % 1024,3 hPa 0,0 l/m 2,2 km/h (1 Bft) N 360 -6,5 C -4,1 C
25.01.2013 11:51 -3,9 C 82 % 1024,2 hPa 0,0 l/m 0,0 km/h (0 Bft) N-NO 22 -6,5 C -3,9 C
25.01.2013 11:56 -3,9 C 82 % 1024,2 hPa 0,0 l/m 0,0 km/h (0 Bft) NW 315 -6,5 C -3,9 C
25.01.2013 12:01 -3,7 C 82 % 1024,0 hPa 0,0 l/m 0,0 km/h (0 Bft) NW 315 -6,3 C -3,7 C
25.01.2013 12:06 -3,6 C 82 % 1024,0 hPa 0,0 l/m 2,5 km/h (1 Bft) NW 315 -6,2 C -3,6 C
25.01.2013 12:11 -3,5 C 82 % 1024,0 hPa 0,0 l/m 0,0 km/h (0 Bft) W-NW 292 -6,1 C -3,5 C
25.01.2013 12:16 -3,5 C 81 % 1023,9 hPa 0,0 l/m 0,0 km/h (0 Bft) W-NW 292 -6,3 C -3,5 C
25.01.2013 12:21 -3,4 C 81 % 1023,8 hPa 0,0 l/m 0,0 km/h (0 Bft) W-NW 292 -6,2 C -3,4 C
25.01.2013 12:26 -3,2 C 81 % 1023,9 hPa 0,0 l/m 0,0 km/h (0 Bft) W 270 -6,0 C -3,2 C
25.01.2013 12:31 -3,2 C 81 % 1023,8 hPa 0,0 l/m 0,0 km/h (0 Bft) W 270 -6,0 C -3,2 C
25.01.2013 12:36 -3,1 C 81 % 1023,8 hPa 0,0 l/m 2,5 km/h (1 Bft) W 270 -5,9 C -3,1 C
25.01.2013 12:41 -3,1 C 80 % 1023,9 hPa 0,0 l/m 0,0 km/h (0 Bft) N-NO 22 -6,0 C -3,1 C
25.01.2013 12:46 -3,1 C 80 % 1023,7 hPa 0,0 l/m 1,1 km/h (1 Bft) NW 315 -6,0 C -3,1 C
25.01.2013 12:51 -3,1 C 80 % 1023,8 hPa 0,0 l/m 0,0 km/h (0 Bft) N 360 -6,0 C -3,1 C
25.01.2013 12:56 -3,0 C 80 % 1023,9 hPa 0,0 l/m 2,5 km/h (1 Bft) W-NW 292 -6,0 C -3,0 C
25.01.2013 13:01 -2,9 C 80 % 1023,9 hPa 0,0 l/m 4,3 km/h (1 Bft) N-NW 337 -5,9 C -2,9 C
25.01.2013 13:06 -2,9 C 80 % 1024,0 hPa 0,0 l/m 0,0 km/h (0 Bft) NW 315 -5,9 C -2,9 C
25.01.2013 13:11 -2,7 C 81 % 1023,9 hPa 0,0 l/m 0,0 km/h (0 Bft) NW 315 -5,5 C -2,7 C
25.01.2013 13:16 -2,7 C 80 % 1023,7 hPa 0,0 l/m 6,1 km/h (2 Bft) W 270 -5,7 C -5,2 C
25.01.2013 13:21 -2,6 C 80 % 1023,5 hPa 0,0 l/m 2,9 km/h (1 Bft) W 270 -5,6 C -2,6 C
25.01.2013 13:26 -2,5 C 79 % 1023,7 hPa 0,0 l/m 0,0 km/h (0 Bft) W-NW 292 -5,6 C -2,5 C
25.01.2013 13:31 -2,4 C 79 % 1023,6 hPa 0,0 l/m 1,4 km/h (1 Bft) W-NW 292 -5,5 C -2,4 C
25.01.2013 13:36 -2,4 C 79 % 1023,6 hPa 0,0 l/m 0,0 km/h (0 Bft) W-NW 292 -5,5 C -2,4 C
25.01.2013 13:41 -2,2 C 79 % 1023,5 hPa 0,0 l/m 2,2 km/h (1 Bft) W-NW 292 -5,3 C -2,2 C
25.01.2013 13:46 -2,2 C 78 % 1023,4 hPa 0,0 l/m 0,0 km/h (0 Bft) N-NW 337 -5,5 C -2,2 C
25.01.2013 13:51 -2,2 C 78 % 1023,2 hPa 0,0 l/m 2,5 km/h (1 Bft) NW 315 -5,5 C -2,2 C
25.01.2013 13:56 -2,2 C 78 % 1023,0 hPa 0,0 l/m 0,0 km/h (0 Bft) W 270 -5,5 C -2,2 C
25.01.2013 14:01 -2,5 C 78 % 1023,2 hPa 0,0 l/m 0,0 km/h (0 Bft) W-SW 247 -5,8 C -2,5 C
25.01.2013 14:06 -2,4 C 79 % 1022,9 hPa 0,0 l/m 3,2 km/h (1 Bft) W-SW 247 -5,5 C -2,4 C
25.01.2013 14:11 -2,2 C 78 % 1022,7 hPa 0,0 l/m 0,0 km/h (0 Bft) W-SW 247 -5,5 C -2,2 C
25.01.2013 14:16 -2,1 C 78 % 1022,8 hPa 0,0 l/m 0,0 km/h (0 Bft) SW 225 -5,4 C -2,1 C
25.01.2013 14:21 -1,8 C 78 % 1022,8 hPa 0,0 l/m 0,0 km/h (0 Bft) W-SW 247 -5,1 C -1,8 C
25.01.2013 14:26 -1,6 C 78 % 1022,8 hPa 0,0 l/m 1,8 km/h (1 Bft) S-SW 202 -4,9 C -1,6 C
25.01.2013 14:31 -1,4 C 77 % 1022,7 hPa 0,0 l/m 0,0 km/h (0 Bft) S 180 -4,9 C -1,4 C
25.01.2013 14:36 -1,4 C 77 % 1022,7 hPa 0,0 l/m 3,2 km/h (1 Bft) S-SO 157 -4,9 C -1,4 C
25.01.2013 14:41 -1,6 C 76 % 1022,7 hPa 0,0 l/m 4,0 km/h (1 Bft) S-SO 157 -5,3 C -1,6 C
25.01.2013 14:46 -1,7 C 76 % 1022,6 hPa 0,0 l/m 1,8 km/h (1 Bft) S-SO 157 -5,4 C -1,7 C
25.01.2013 14:51 -1,7 C 76 % 1022,5 hPa 0,0 l/m 2,9 km/h (1 Bft) S-SO 157 -5,4 C -1,7 C
25.01.2013 14:56 -1,7 C 76 % 1022,6 hPa 0,0 l/m 0,0 km/h (0 Bft) SO 135 -5,4 C -1,7 C
25.01.2013 15:01 -1,9 C 75 % 1022,5 hPa 0,0 l/m 0,0 km/h (0 Bft) O-SO 112 -5,7 C -1,9 C
25.01.2013 15:06 -2,1 C 75 % 1022,6 hPa 0,0 l/m 2,9 km/h (1 Bft) SO 135 -5,9 C -2,1 C
25.01.2013 15:11 -2,2 C 75 % 1022,6 hPa 0,0 l/m 4,0 km/h (1 Bft) O-SO 112 -6,0 C -2,2 C
25.01.2013 15:16 -2,4 C 75 % 1022,6 hPa 0,0 l/m 1,8 km/h (1 Bft) SO 135 -6,2 C -2,4 C
25.01.2013 15:21 -2,5 C 76 % 1022,5 hPa 0,0 l/m 6,1 km/h (2 Bft) O-NO 67 -6,1 C -4,9 C
25.01.2013 15:26 -2,7 C 76 % 1022,6 hPa 0,0 l/m 2,2 km/h (1 Bft) O-SO 112 -6,3 C -2,7 C
25.01.2013 15:31 -2,9 C 76 % 1022,6 hPa 0,0 l/m 1,4 km/h (1 Bft) O-SO 112 -6,5 C -2,9 C
25.01.2013 15:36 -3,0 C 76 % 1022,8 hPa 0,0 l/m 3,2 km/h (1 Bft) O-SO 112 -6,6 C -3,0 C
25.01.2013 15:41 -3,2 C 76 % 1022,7 hPa 0,0 l/m 0,0 km/h (0 Bft) O-SO 112 -6,8 C -3,2 C
25.01.2013 15:46 -3,4 C 76 % 1022,6 hPa 0,0 l/m 2,2 km/h (1 Bft) O-SO 112 -7,0 C -3,4 C
25.01.2013 15:51 -3,5 C 76 % 1022,7 hPa 0,0 l/m 2,5 km/h (1 Bft) O-SO 112 -7,1 C -3,5 C
25.01.2013 15:56 -3,6 C 76 % 1022,6 hPa 0,0 l/m 2,5 km/h (1 Bft) O-SO 112 -7,2 C -3,6 C
25.01.2013 16:01 -3,6 C 77 % 1022,6 hPa 0,0 l/m 0,0 km/h (0 Bft) SO 135 -7,0 C -3,6 C
25.01.2013 16:06 -3,7 C 77 % 1022,6 hPa 0,0 l/m 0,0 km/h (0 Bft) O-SO 112 -7,1 C -3,7 C
25.01.2013 16:11 -3,8 C 77 % 1022,6 hPa 0,0 l/m 0,0 km/h (0 Bft) O-SO 112 -7,2 C -3,8 C
25.01.2013 16:16 -3,9 C 78 % 1022,6 hPa 0,0 l/m 0,0 km/h (0 Bft) SO 135 -7,2 C -3,9 C
25.01.2013 16:21 -4,1 C 78 % 1022,6 hPa 0,0 l/m 0,0 km/h (0 Bft) O-SO 112 -7,4 C -4,1 C
25.01.2013 16:26 -4,2 C 78 % 1022,6 hPa 0,0 l/m 0,0 km/h (0 Bft) SO 135 -7,4 C -4,2 C
25.01.2013 16:31 -4,4 C 78 % 1022,6 hPa 0,0 l/m 0,0 km/h (0 Bft) SO 135 -7,6 C -4,4 C
25.01.2013 16:36 -4,4 C 79 % 1022,6 hPa 0,0 l/m 0,0 km/h (0 Bft) SO 135 -7,5 C -4,4 C
25.01.2013 16:41 -4,6 C 79 % 1022,6 hPa 0,0 l/m 0,0 km/h (0 Bft) SO 135 -7,7 C -4,6 C
25.01.2013 16:46 -4,7 C 79 % 1022,6 hPa 0,0 l/m 0,0 km/h (0 Bft) SO 135 -7,8 C -4,7 C
25.01.2013 16:51 -4,9 C 79 % 1022,6 hPa 0,0 l/m 0,0 km/h (0 Bft) SO 135 -8,0 C -4,9 C
25.01.2013 16:56 -5,1 C 79 % 1022,6 hPa 0,0 l/m 0,0 km/h (0 Bft) SO 135 -8,2 C -5,1 C
25.01.2013 17:01 -5,2 C 79 % 1022,6 hPa 0,0 l/m 0,0 km/h (0 Bft) SO 135 -8,3 C -5,2 C
25.01.2013 17:06 -5,5 C 80 % 1022,5 hPa 0,0 l/m 0,0 km/h (0 Bft) SO 135 -8,4 C -5,5 C
25.01.2013 17:11 -5,6 C 79 % 1022,5 hPa 0,0 l/m 1,1 km/h (1 Bft) SO 135 -8,6 C -5,6 C
25.01.2013 17:16 -5,7 C 80 % 1022,4 hPa 0,0 l/m 0,0 km/h (0 Bft) SO 135 -8,6 C -5,7 C
25.01.2013 17:21 -5,9 C 80 % 1022,7 hPa 0,0 l/m 0,0 km/h (0 Bft) SO 135 -8,8 C -5,9 C
25.01.2013 17:26 -6,1 C 80 % 1022,6 hPa 0,0 l/m 1,1 km/h (1 Bft) SO 135 -9,0 C -6,1 C
25.01.2013 17:31 -6,2 C 80 % 1022,7 hPa 0,0 l/m 1,1 km/h (1 Bft) SO 135 -9,1 C -6,2 C
25.01.2013 17:36 -6,3 C 81 % 1022,7 hPa 0,0 l/m 1,1 km/h (1 Bft) SO 135 -9,0 C -6,3 C
25.01.2013 17:41 -6,4 C 81 % 1022,6 hPa 0,0 l/m 0,0 km/h (0 Bft) SO 135 -9,1 C -6,4 C
25.01.2013 17:46 -6,5 C 81 % 1022,6 hPa 0,0 l/m 0,0 km/h (0 Bft) SO 135 -9,2 C -6,5 C
25.01.2013 17:51 -6,7 C 81 % 1022,6 hPa 0,0 l/m 0,0 km/h (0 Bft) SO 135 -9,4 C -6,7 C
25.01.2013 17:56 -6,7 C 81 % 1022,5 hPa 0,0 l/m 0,0 km/h (0 Bft) SO 135 -9,4 C -6,7 C
25.01.2013 18:01 -6,9 C 82 % 1022,5 hPa 0,0 l/m 0,0 km/h (0 Bft) SO 135 -9,4 C -6,9 C
25.01.2013 18:06 -6,9 C 82 % 1022,5 hPa 0,0 l/m 0,0 km/h (0 Bft) SO 135 -9,4 C -6,9 C
25.01.2013 18:11 -7,1 C 82 % 1022,4 hPa 0,0 l/m 2,2 km/h (1 Bft) SO 135 -9,6 C -7,1 C
25.01.2013 18:16 -7,1 C 82 % 1022,4 hPa 0,0 l/m 2,2 km/h (1 Bft) SO 135 -9,6 C -7,1 C
25.01.2013 18:21 -7,2 C 83 % 1022,5 hPa 0,0 l/m 0,0 km/h (0 Bft) SO 135 -9,6 C -7,2 C
25.01.2013 18:26 -7,2 C 83 % 1022,4 hPa 0,0 l/m 1,4 km/h (1 Bft) SO 135 -9,6 C -7,2 C
25.01.2013 18:31 -7,2 C 84 % 1022,2 hPa 0,0 l/m 1,8 km/h (1 Bft) SO 135 -9,4 C -7,2 C
25.01.2013 18:36 -7,2 C 84 % 1022,2 hPa 0,0 l/m 2,9 km/h (1 Bft) SO 135 -9,4 C -7,2 C
25.01.2013 18:41 -7,4 C 85 % 1022,3 hPa 0,0 l/m 4,0 km/h (1 Bft) SO 135 -9,5 C -7,4 C
25.01.2013 18:46 -7,5 C 85 % 1022,2 hPa 0,0 l/m 3,2 km/h (1 Bft) O-SO 112 -9,6 C -7,5 C
25.01.2013 18:51 -7,6 C 85 % 1022,1 hPa 0,0 l/m 0,0 km/h (0 Bft) SO 135 -9,7 C -7,6 C
25.01.2013 18:56 -7,7 C 85 % 1022,0 hPa 0,0 l/m 1,8 km/h (1 Bft) SO 135 -9,8 C -7,7 C
25.01.2013 19:01 -7,8 C 85 % 1021,8 hPa 0,0 l/m 0,0 km/h (0 Bft) S-SO 157 -9,9 C -7,8 C
25.01.2013 19:06 -7,9 C 85 % 1021,8 hPa 0,0 l/m 0,0 km/h (0 Bft) SO 135 -10,0 C -7,9 C
25.01.2013 19:11 -7,9 C 85 % 1021,8 hPa 0,0 l/m 5,0 km/h (1 Bft) S-SO 157 -10,0 C -10,6 C
25.01.2013 19:16 -8,0 C 85 % 1021,7 hPa 0,0 l/m 2,9 km/h (1 Bft) SO 135 -10,1 C -8,0 C
25.01.2013 19:21 -8,1 C 86 % 1021,8 hPa 0,0 l/m 4,7 km/h (1 Bft) S-SO 157 -10,0 C -10,6 C
25.01.2013 19:26 -8,1 C 86 % 1021,5 hPa 0,0 l/m 4,0 km/h (1 Bft) S-SO 157 -10,0 C -8,1 C
25.01.2013 19:31 -8,1 C 86 % 1021,4 hPa 0,0 l/m 4,0 km/h (1 Bft) S-SO 157 -10,0 C -8,1 C
25.01.2013 19:36 -7,9 C 86 % 1021,6 hPa 0,0 l/m 4,0 km/h (1 Bft) S-SO 157 -9,8 C -7,9 C
25.01.2013 19:41 -7,7 C 86 % 1021,5 hPa 0,0 l/m 4,7 km/h (1 Bft) SO 135 -9,6 C -10,1 C
25.01.2013 19:46 -7,5 C 87 % 1021,5 hPa 0,0 l/m 8,6 km/h (2 Bft) SO 135 -9,3 C -11,8 C
25.01.2013 19:51 -7,3 C 87 % 1021,6 hPa 0,0 l/m 5,0 km/h (1 Bft) SO 135 -9,1 C -9,9 C
25.01.2013 19:56 -7,1 C 87 % 1021,5 hPa 0,0 l/m 2,9 km/h (1 Bft) S-SO 157 -8,9 C -7,1 C
25.01.2013 20:01 -7,1 C 87 % 1021,7 hPa 0,0 l/m 2,5 km/h (1 Bft) SO 135 -8,9 C -7,1 C
25.01.2013 20:06 -7,0 C 87 % 1021,7 hPa 0,0 l/m 2,5 km/h (1 Bft) SO 135 -8,8 C -7,0 C
25.01.2013 20:11 -7,1 C 86 % 1021,7 hPa 0,0 l/m 0,0 km/h (0 Bft) SO 135 -9,0 C -7,1 C
25.01.2013 20:16 -7,2 C 86 % 1021,9 hPa 0,0 l/m 1,8 km/h (1 Bft) SO 135 -9,1 C -7,2 C
25.01.2013 20:21 -7,3 C 86 % 1021,5 hPa 0,0 l/m 5,4 km/h (1 Bft) S-SO 157 -9,2 C -10,1 C
25.01.2013 20:26 -7,5 C 86 % 1021,6 hPa 0,0 l/m 4,0 km/h (1 Bft) SO 135 -9,4 C -7,5 C
25.01.2013 20:31 -7,6 C 85 % 1021,8 hPa 0,0 l/m 0,0 km/h (0 Bft) S-SO 157 -9,7 C -7,6 C
25.01.2013 20:36 -7,6 C 86 % 1021,7 hPa 0,0 l/m 0,0 km/h (0 Bft) O-SO 112 -9,5 C -7,6 C
25.01.2013 20:41 -7,6 C 86 % 1021,7 hPa 0,0 l/m 2,2 km/h (1 Bft) O-SO 112 -9,5 C -7,6 C
25.01.2013 20:46 -7,7 C 86 % 1021,6 hPa 0,0 l/m 0,0 km/h (0 Bft) O-SO 112 -9,6 C -7,7 C
25.01.2013 20:51 -7,9 C 85 % 1021,6 hPa 0,0 l/m 2,5 km/h (1 Bft) O-SO 112 -10,0 C -7,9 C
25.01.2013 20:56 -8,0 C 85 % 1021,7 hPa 0,0 l/m 0,0 km/h (0 Bft) O-SO 112 -10,1 C -8,0 C
25.01.2013 21:01 -8,1 C 85 % 1021,6 hPa 0,0 l/m 0,0 km/h (0 Bft) SO 135 -10,2 C -8,1 C
25.01.2013 21:06 -8,2 C 85 % 1021,5 hPa 0,0 l/m 0,0 km/h (0 Bft) SO 135 -10,3 C -8,2 C
25.01.2013 21:11 -8,2 C 85 % 1021,5 hPa 0,0 l/m 0,0 km/h (0 Bft) O-SO 112 -10,3 C -8,2 C
25.01.2013 21:16 -8,2 C 86 % 1021,4 hPa 0,0 l/m 0,0 km/h (0 Bft) SO 135 -10,1 C -8,2 C
25.01.2013 21:21 -8,4 C 86 % 1021,5 hPa 0,0 l/m 0,0 km/h (0 Bft) SO 135 -10,3 C -8,4 C
25.01.2013 21:26 -8,4 C 86 % 1021,3 hPa 0,0 l/m 1,8 km/h (1 Bft) O-SO 112 -10,3 C -8,4 C
25.01.2013 21:31 -8,5 C 86 % 1021,2 hPa 0,0 l/m 0,0 km/h (0 Bft) SO 135 -10,4 C -8,5 C
25.01.2013 21:36 -8,6 C 86 % 1021,2 hPa 0,0 l/m 0,0 km/h (0 Bft) SO 135 -10,5 C -8,6 C
25.01.2013 21:41 -8,7 C 86 % 1021,1 hPa 0,0 l/m 0,0 km/h (0 Bft) SO 135 -10,6 C -8,7 C
25.01.2013 21:46 -8,7 C 86 % 1021,0 hPa 0,0 l/m 1,4 km/h (1 Bft) SO 135 -10,6 C -8,7 C
25.01.2013 21:51 -8,8 C 86 % 1021,0 hPa 0,0 l/m 0,0 km/h (0 Bft) SO 135 -10,7 C -8,8 C
25.01.2013 21:56 -8,9 C 86 % 1020,9 hPa 0,0 l/m 2,2 km/h (1 Bft) SO 135 -10,8 C -8,9 C
25.01.2013 22:01 -9,0 C 86 % 1020,8 hPa 0,0 l/m 0,0 km/h (0 Bft) SO 135 -10,9 C -9,0 C
25.01.2013 22:06 -9,0 C 86 % 1020,7 hPa 0,0 l/m 4,7 km/h (1 Bft) SO 135 -10,9 C -11,6 C
25.01.2013 22:11 -9,1 C 86 % 1020,7 hPa 0,0 l/m 2,2 km/h (1 Bft) S-SO 157 -11,0 C -9,1 C
25.01.2013 22:16 -9,1 C 86 % 1020,7 hPa 0,0 l/m 4,7 km/h (1 Bft) S-SO 157 -11,0 C -11,7 C
25.01.2013 22:21 -9,1 C 86 % 1020,7 hPa 0,0 l/m 7,6 km/h (2 Bft) S-SO 157 -11,0 C -13,3 C
25.01.2013 22:26 -9,1 C 86 % 1020,6 hPa 0,0 l/m 4,0 km/h (1 Bft) SO 135 -11,0 C -9,1 C
25.01.2013 22:31 -9,1 C 86 % 1020,5 hPa 0,0 l/m 3,6 km/h (1 Bft) SO 135 -11,0 C -9,1 C
25.01.2013 22:36 -9,1 C 86 % 1020,4 hPa 0,0 l/m 6,5 km/h (2 Bft) S 180 -11,0 C -12,7 C
25.01.2013 22:41 -9,0 C 86 % 1020,4 hPa 0,0 l/m 2,5 km/h (1 Bft) O-SO 112 -10,9 C -9,0 C
25.01.2013 22:46 -8,9 C 87 % 1020,4 hPa 0,0 l/m 1,8 km/h (1 Bft) SO 135 -10,7 C -8,9 C
25.01.2013 22:51 -8,9 C 87 % 1020,4 hPa 0,0 l/m 4,0 km/h (1 Bft) S-SO 157 -10,7 C -8,9 C
25.01.2013 22:56 -9,0 C 87 % 1020,5 hPa 0,0 l/m 1,1 km/h (1 Bft) SO 135 -10,8 C -9,0 C
25.01.2013 23:01 -9,1 C 86 % 1020,4 hPa 0,0 l/m 0,0 km/h (0 Bft) S-SO 157 -11,0 C -9,1 C
25.01.2013 23:06 -9,2 C 86 % 1020,5 hPa 0,0 l/m 1,4 km/h (1 Bft) S-SO 157 -11,1 C -9,2 C
25.01.2013 23:11 -9,3 C 86 % 1020,6 hPa 0,0 l/m 2,2 km/h (1 Bft) S-SO 157 -11,2 C -9,3 C
25.01.2013 23:16 -9,4 C 86 % 1020,4 hPa 0,0 l/m 1,8 km/h (1 Bft) S-SO 157 -11,3 C -9,4 C
25.01.2013 23:21 -9,5 C 86 % 1020,5 hPa 0,0 l/m 2,5 km/h (1 Bft) S-SO 157 -11,4 C -9,5 C
25.01.2013 23:26 -9,5 C 86 % 1020,5 hPa 0,0 l/m 1,8 km/h (1 Bft) S-SO 157 -11,4 C -9,5 C
25.01.2013 23:31 -9,6 C 86 % 1020,4 hPa 0,0 l/m 2,9 km/h (1 Bft) S-SO 157 -11,5 C -9,6 C
25.01.2013 23:36 -9,6 C 86 % 1020,4 hPa 0,0 l/m 4,0 km/h (1 Bft) SO 135 -11,5 C -9,6 C
25.01.2013 23:41 -9,7 C 86 % 1020,4 hPa 0,0 l/m 0,0 km/h (0 Bft) S-SO 157 -11,6 C -9,7 C
25.01.2013 23:46 -9,7 C 86 % 1020,4 hPa 0,0 l/m 0,0 km/h (0 Bft) S-SO 157 -11,6 C -9,7 C
25.01.2013 23:51 -9,8 C 86 % 1020,4 hPa 0,0 l/m 0,0 km/h (0 Bft) SO 135 -11,7 C -9,8 C
25.01.2013 23:56 -9,9 C 86 % 1020,2 hPa 0,0 l/m 2,5 km/h (1 Bft) SO 135 -11,8 C -9,9 C
_ Min-Zeit 04:21 15:01 23:56 - 00:06 - - 04:21 22:21
Minimum _ -10,6 C 75 % 1020,2 hPa - 0,0 km/h (0 Bft) - - -12,5 C -13,3 C
_ Max-Zeit 14:31 00:01 11:16 00:01 19:46 - - 14:31 14:31
Maximum _ -1,4 C 88 % 1024,3 hPa 0,0 l/m 8,6 km/h
SO (2 Bft)
- - -4,9 C -1,4 C
Durchschnitt _ -7,0 C 84 % 1022,6 hPa #0,0 l/m 1,0 km/h (0 Bft) SO - -9,2 C -7,2 C
(c) by David Heller